createdAt,value
2018-07-14T00:02:08.280Z,79.96
2018-07-14T00:04:37.063Z,80.17
2018-07-14T00:07:05.731Z,79.93
2018-07-14T00:09:34.391Z,80.83
2018-07-14T00:12:03.000Z,80.54
2018-07-14T00:14:31.700Z,81.23
2018-07-14T00:17:00.348Z,80.97
2018-07-14T00:19:29.015Z,81.42
2018-07-14T00:21:57.667Z,81.53
2018-07-14T00:24:26.355Z,81.46
2018-07-14T00:26:54.952Z,81.67
2018-07-14T00:29:23.631Z,81.32
2018-07-14T00:31:52.306Z,81.58
2018-07-14T00:34:20.963Z,81.86
2018-07-14T00:36:49.587Z,81.86
2018-07-14T00:39:18.240Z,81.58
2018-07-14T00:41:46.887Z,81.13
2018-07-14T00:44:15.562Z,81.18
2018-07-14T00:46:44.193Z,81.96
2018-07-14T00:49:12.840Z,81.91
2018-07-14T00:51:41.474Z,81.70
2018-07-14T00:54:10.090Z,81.64
2018-07-14T00:56:38.725Z,82.00
2018-07-14T00:59:07.399Z,81.95
2018-07-14T01:01:36.019Z,82.46
2018-07-14T01:04:04.686Z,82.38
2018-07-14T01:06:33.336Z,82.72
2018-07-14T01:09:01.985Z,82.71
2018-07-14T01:11:30.638Z,82.57
2018-07-14T01:13:59.262Z,82.74
2018-07-14T01:16:27.883Z,82.86
2018-07-14T01:18:56.539Z,82.85
2018-07-14T01:21:25.215Z,82.62
2018-07-14T01:23:53.844Z,82.50
2018-07-14T01:26:22.426Z,82.59
2018-07-14T01:28:51.083Z,82.99
2018-07-14T01:31:19.760Z,82.37
2018-07-14T01:33:48.434Z,82.41
2018-07-14T01:36:17.310Z,82.47
2018-07-14T01:38:46.202Z,82.55
2018-07-14T01:41:14.835Z,82.58
2018-07-14T01:43:43.415Z,82.89
2018-07-14T01:46:12.091Z,82.41
2018-07-14T01:48:40.711Z,82.58
2018-07-14T01:51:09.376Z,82.58
2018-07-14T01:53:38.040Z,82.31
2018-07-14T01:56:06.704Z,81.92
2018-07-14T01:58:35.300Z,82.21
2018-07-14T02:01:03.936Z,82.02
2018-07-14T02:03:32.582Z,81.83
2018-07-14T02:06:01.184Z,81.87
2018-07-14T02:08:29.839Z,81.68
2018-07-14T02:10:58.579Z,81.67
2018-07-14T02:13:27.183Z,81.62
2018-07-14T02:15:55.825Z,81.06
2018-07-14T02:18:24.419Z,81.04
2018-07-14T02:20:53.058Z,80.57
2018-07-14T02:23:21.752Z,80.99
2018-07-14T02:25:50.350Z,80.83
2018-07-14T02:28:19.027Z,80.35
2018-07-14T02:30:47.692Z,81.25
2018-07-14T02:33:16.339Z,81.06
2018-07-14T02:35:44.964Z,81.82
2018-07-14T02:38:13.607Z,81.65
2018-07-14T02:40:42.264Z,81.44
2018-07-14T02:43:10.935Z,81.44
2018-07-14T02:45:39.786Z,80.66
2018-07-14T02:48:08.447Z,80.83
2018-07-14T02:50:37.104Z,81.37
2018-07-14T02:53:05.909Z,81.09
2018-07-14T02:55:34.552Z,80.97
2018-07-14T02:58:03.283Z,80.42
2018-07-14T03:00:31.951Z,80.32
2018-07-14T03:03:00.571Z,80.14
2018-07-14T03:05:38.760Z,80.51
2018-07-14T03:08:07.388Z,80.70
2018-07-14T03:10:36.059Z,80.21
2018-07-14T03:13:04.704Z,79.93
2018-07-14T03:15:33.314Z,79.35
2018-07-14T03:18:01.979Z,79.55
2018-07-14T03:20:30.620Z,79.54
2018-07-14T03:22:59.227Z,79.64
2018-07-14T03:25:27.880Z,79.48
2018-07-14T03:27:56.486Z,79.48
2018-07-14T03:30:25.202Z,78.93
2018-07-14T03:32:53.795Z,78.58
2018-07-14T03:35:22.415Z,78.32
2018-07-14T03:37:51.022Z,78.46
2018-07-14T03:40:19.669Z,77.68
2018-07-14T03:42:48.406Z,77.77
2018-07-14T03:45:16.999Z,77.81
2018-07-14T03:47:45.651Z,77.66
2018-07-14T03:50:14.304Z,77.63
2018-07-14T03:52:42.946Z,77.65
2018-07-14T03:55:11.600Z,77.77
2018-07-14T03:57:40.590Z,78.33
2018-07-14T04:00:09.281Z,78.01
2018-07-14T04:02:37.878Z,77.89
2018-07-14T04:05:06.507Z,77.76
2018-07-14T04:07:35.159Z,77.77
2018-07-14T04:10:03.866Z,77.61
2018-07-14T04:12:32.593Z,76.95
2018-07-14T04:15:01.365Z,77.03
2018-07-14T04:17:29.979Z,76.99
2018-07-14T04:19:58.595Z,77.29
2018-07-14T04:22:27.227Z,77.74
2018-07-14T04:24:55.847Z,77.14
2018-07-14T04:27:24.444Z,76.87
2018-07-14T04:29:53.048Z,76.81
2018-07-14T04:32:21.729Z,77.01
2018-07-14T04:34:50.362Z,77.00
2018-07-14T04:37:19.010Z,77.24
2018-07-14T04:39:47.667Z,77.60
2018-07-14T04:42:16.320Z,77.15
2018-07-14T04:44:44.907Z,77.03
2018-07-14T04:47:13.574Z,76.99
2018-07-14T04:49:42.225Z,76.85
2018-07-14T04:52:11.766Z,76.20
2018-07-14T04:54:40.384Z,76.39
2018-07-14T04:57:09.909Z,76.20
2018-07-14T04:59:38.577Z,75.99
2018-07-14T05:02:07.614Z,75.91
2018-07-14T05:04:36.385Z,75.72
2018-07-14T05:07:05.340Z,75.94
2018-07-14T05:09:34.155Z,76.07
2018-07-14T05:12:03.231Z,76.51
2018-07-14T05:14:32.456Z,76.66
2018-07-14T05:17:01.138Z,76.68
2018-07-14T05:19:29.822Z,76.65
2018-07-14T05:21:58.470Z,76.76
2018-07-14T05:24:27.152Z,75.96
2018-07-14T05:26:55.820Z,75.80
2018-07-14T05:29:24.438Z,75.94
2018-07-14T05:31:53.061Z,75.53
2018-07-14T05:34:21.667Z,75.48
2018-07-14T05:36:50.291Z,75.26
2018-07-14T05:39:19.256Z,74.67
2018-07-14T05:41:48.052Z,75.26
2018-07-14T05:44:16.895Z,75.29
2018-07-14T05:46:45.511Z,75.75
2018-07-14T05:49:14.117Z,75.79
2018-07-14T05:51:42.807Z,75.26
2018-07-14T05:54:11.449Z,75.42
2018-07-14T05:56:40.102Z,74.87
2018-07-14T05:59:08.744Z,74.31
2018-07-14T06:01:37.442Z,73.59
2018-07-14T06:04:06.046Z,73.42
2018-07-14T06:06:34.695Z,73.30
2018-07-14T06:09:03.814Z,73.25
2018-07-14T06:11:32.439Z,74.05
2018-07-14T06:14:01.075Z,73.21
2018-07-14T06:16:29.729Z,73.39
2018-07-14T06:18:58.336Z,72.88
2018-07-14T06:21:26.938Z,72.97
2018-07-14T06:23:55.586Z,72.45
2018-07-14T06:26:24.253Z,72.39
2018-07-14T06:28:53.223Z,72.72
2018-07-14T06:31:21.954Z,72.04
2018-07-14T06:33:50.602Z,71.62
2018-07-14T06:36:19.278Z,72.02
2018-07-14T06:38:47.905Z,71.72
2018-07-14T06:41:16.538Z,71.10
2018-07-14T06:43:45.199Z,70.82
2018-07-14T06:46:13.859Z,72.73
2018-07-14T06:48:42.595Z,71.98
2018-07-14T06:51:11.344Z,71.06
2018-07-14T06:53:40.136Z,71.79
2018-07-14T06:56:08.816Z,72.38
2018-07-14T06:58:37.667Z,72.45
2018-07-14T07:01:06.383Z,72.86
2018-07-14T07:03:35.207Z,72.66
2018-07-14T07:06:04.055Z,73.11
2018-07-14T07:08:32.886Z,72.38
2018-07-14T07:11:01.848Z,72.59
2018-07-14T07:13:30.506Z,72.16
2018-07-14T07:15:59.275Z,71.75
2018-07-14T07:18:28.239Z,72.75
2018-07-14T07:20:56.965Z,73.01
2018-07-14T07:23:25.604Z,73.01
2018-07-14T07:25:54.211Z,72.90
2018-07-14T07:28:22.853Z,72.91
2018-07-14T07:30:51.473Z,72.59
2018-07-14T07:33:20.150Z,72.49
2018-07-14T07:35:48.869Z,71.82
2018-07-14T07:38:17.541Z,71.26
2018-07-14T07:40:46.282Z,70.01
2018-07-14T07:43:14.907Z,70.28
2018-07-14T07:45:43.565Z,69.38
2018-07-14T07:48:12.279Z,69.46
2018-07-14T07:50:40.979Z,68.69
2018-07-14T07:53:09.607Z,67.92
2018-07-14T07:55:38.308Z,68.56
2018-07-14T07:58:06.939Z,68.01
2018-07-14T08:00:35.595Z,68.93
2018-07-14T08:03:04.221Z,69.15
2018-07-14T08:05:32.984Z,69.92
2018-07-14T08:08:01.673Z,69.41
2018-07-14T08:10:30.361Z,69.26
2018-07-14T08:12:59.030Z,67.86
2018-07-14T08:15:27.704Z,67.64
2018-07-14T08:17:56.355Z,67.54
2018-07-14T08:20:24.987Z,67.80
2018-07-14T08:22:54.141Z,68.20
2018-07-14T08:25:22.715Z,68.41
2018-07-14T08:27:51.351Z,68.53
2018-07-14T08:30:20.044Z,68.38
2018-07-14T08:32:48.779Z,68.34
2018-07-14T08:35:17.463Z,68.51
2018-07-14T08:37:46.390Z,68.82
2018-07-14T08:40:15.004Z,68.65
2018-07-14T08:42:43.713Z,68.80
2018-07-14T08:45:12.399Z,69.33
2018-07-14T08:47:41.050Z,69.50
2018-07-14T08:50:09.711Z,69.47
2018-07-14T08:52:38.323Z,69.22
2018-07-14T08:55:06.975Z,68.50
2018-07-14T08:57:35.673Z,68.54
2018-07-14T09:00:04.591Z,68.13
2018-07-14T09:02:33.272Z,67.89
2018-07-14T09:05:01.923Z,67.18
2018-07-14T09:07:30.605Z,67.45
2018-07-14T09:09:59.501Z,66.58
2018-07-14T09:12:28.231Z,66.49
2018-07-14T09:14:56.905Z,66.95
2018-07-14T09:17:25.562Z,66.62
2018-07-14T09:19:54.228Z,66.54
2018-07-14T09:22:22.851Z,66.15
2018-07-14T09:24:51.505Z,65.60
2018-07-14T09:27:20.175Z,65.29
2018-07-14T09:29:48.909Z,64.39
2018-07-14T09:32:17.560Z,64.61
2018-07-14T09:34:46.222Z,65.75
2018-07-14T09:37:14.885Z,66.49
2018-07-14T09:39:43.814Z,67.28
2018-07-14T09:42:12.463Z,68.62
2018-07-14T09:44:41.204Z,69.66
2018-07-14T09:47:09.857Z,67.94
2018-07-14T09:49:38.520Z,69.25
2018-07-14T09:52:07.227Z,67.20
2018-07-14T09:54:35.999Z,67.96
2018-07-14T09:57:05.012Z,68.57
2018-07-14T09:59:33.684Z,69.53
2018-07-14T10:02:02.343Z,68.54
2018-07-14T10:04:31.033Z,68.21
2018-07-14T10:06:59.798Z,67.72
2018-07-14T10:09:28.551Z,67.48
2018-07-14T10:11:57.290Z,67.05
2018-07-14T10:14:25.924Z,67.15
2018-07-14T10:16:54.587Z,67.15
2018-07-14T10:19:23.304Z,68.60
2018-07-14T10:21:52.231Z,67.28
2018-07-14T10:24:20.860Z,67.42
2018-07-14T10:26:49.569Z,67.15
2018-07-14T10:29:18.186Z,67.48
2018-07-14T10:31:47.063Z,68.68
2018-07-14T10:34:15.799Z,67.94
2018-07-14T10:36:44.479Z,66.63
2018-07-14T10:39:13.142Z,66.44
2018-07-14T10:41:41.855Z,66.36
2018-07-14T10:44:10.611Z,66.00
2018-07-14T10:46:39.242Z,63.64
2018-07-14T10:49:07.862Z,64.42
2018-07-14T10:51:36.527Z,64.79
2018-07-14T10:54:05.197Z,64.64
2018-07-14T10:56:33.849Z,64.37
2018-07-14T10:59:02.464Z,64.16
2018-07-14T11:01:31.090Z,64.16
2018-07-14T11:03:59.816Z,64.21
2018-07-14T11:06:28.434Z,64.14
2018-07-14T11:08:57.143Z,65.06
2018-07-14T11:11:25.771Z,64.71
2018-07-14T11:13:54.443Z,64.90
2018-07-14T11:16:23.075Z,64.75
2018-07-14T11:18:51.853Z,65.62
2018-07-14T11:21:20.511Z,66.03
2018-07-14T11:23:49.244Z,65.90
2018-07-14T11:26:17.835Z,65.93
2018-07-14T11:28:46.467Z,67.28
2018-07-14T11:31:15.217Z,65.48
2018-07-14T11:33:43.867Z,66.62
2018-07-14T11:36:12.531Z,67.26
2018-07-14T11:38:41.232Z,67.73
2018-07-14T11:41:09.932Z,67.78
2018-07-14T11:43:38.532Z,67.22
2018-07-14T11:46:07.242Z,67.48
2018-07-14T11:48:35.903Z,66.67
2018-07-14T11:51:04.652Z,66.70
2018-07-14T11:53:33.289Z,67.00
2018-07-14T11:56:02.104Z,67.35
2018-07-14T11:58:31.358Z,67.69
2018-07-14T12:01:00.062Z,67.90
2018-07-14T12:03:28.691Z,67.56
2018-07-14T12:05:57.408Z,68.17
2018-07-14T12:08:26.120Z,69.18
2018-07-14T12:10:54.756Z,68.72
2018-07-14T12:13:23.516Z,67.84
2018-07-14T12:15:52.077Z,68.39
2018-07-14T12:18:20.666Z,68.77
2018-07-14T12:20:49.311Z,68.55
2018-07-14T12:23:17.955Z,68.16
2018-07-14T12:25:46.643Z,69.34
2018-07-14T12:28:15.293Z,66.99
2018-07-14T12:30:44.018Z,68.35
2018-07-14T12:33:12.578Z,67.95
2018-07-14T12:35:41.259Z,67.73
2018-07-14T12:38:09.910Z,66.61
2018-07-14T12:40:38.700Z,65.80
2018-07-14T12:43:07.369Z,66.08
2018-07-14T12:45:36.431Z,66.09
2018-07-14T12:48:05.412Z,67.16
2018-07-14T12:50:34.026Z,66.12
2018-07-14T12:53:02.639Z,67.18
2018-07-14T12:55:31.273Z,65.42
2018-07-14T12:57:59.950Z,65.82
2018-07-14T13:00:28.668Z,64.72
2018-07-14T13:02:57.301Z,65.29
2018-07-14T13:05:26.247Z,65.67
2018-07-14T13:07:54.943Z,66.38
2018-07-14T13:10:23.565Z,64.43
2018-07-14T13:12:52.341Z,65.08
2018-07-14T13:15:20.895Z,65.75
2018-07-14T13:17:49.521Z,64.64
2018-07-14T13:20:18.134Z,64.51
2018-07-14T13:22:46.767Z,64.05
2018-07-14T13:25:15.439Z,63.76
2018-07-14T13:27:44.147Z,64.22
2018-07-14T13:30:12.833Z,63.47
2018-07-14T13:32:41.387Z,63.27
2018-07-14T13:35:10.028Z,63.68
2018-07-14T13:37:38.749Z,63.16
2018-07-14T13:40:07.411Z,63.03
2018-07-14T13:42:36.049Z,63.63
2018-07-14T13:45:04.951Z,63.48
2018-07-14T13:47:33.605Z,64.22
2018-07-14T13:50:02.352Z,63.13
2018-07-14T13:52:30.991Z,62.55
2018-07-14T13:54:59.623Z,63.26
2018-07-14T13:57:28.276Z,63.19
2018-07-14T13:59:56.943Z,65.15
2018-07-14T14:02:25.583Z,65.67
2018-07-14T14:04:54.264Z,64.93
2018-07-14T14:07:22.954Z,65.29
2018-07-14T14:09:51.604Z,64.93
2018-07-14T14:12:20.247Z,64.63
2018-07-14T14:14:48.927Z,64.77
2018-07-14T14:17:17.570Z,65.87
2018-07-14T14:19:46.250Z,65.06
2018-07-14T14:22:14.827Z,65.25
2018-07-14T14:24:43.456Z,65.36
2018-07-14T14:27:12.115Z,66.09
2018-07-14T14:29:41.143Z,65.40
2018-07-14T14:32:09.965Z,65.61
2018-07-14T14:34:38.563Z,65.19
2018-07-14T14:37:07.239Z,64.91
2018-07-14T14:39:35.971Z,65.22
2018-07-14T14:42:04.798Z,65.83
2018-07-14T14:44:33.502Z,64.72
2018-07-14T14:47:02.128Z,65.19
2018-07-14T14:49:30.727Z,65.09
2018-07-14T14:51:59.547Z,64.67
2018-07-14T14:54:28.223Z,64.45
2018-07-14T14:56:56.864Z,65.48
2018-07-14T14:59:25.508Z,65.29
2018-07-14T15:01:54.163Z,64.67
2018-07-14T15:04:22.788Z,64.56
2018-07-14T15:06:51.439Z,64.39
2018-07-14T15:09:20.078Z,64.64
2018-07-14T15:11:48.706Z,65.75
2018-07-14T15:14:17.420Z,64.70
2018-07-14T15:16:46.067Z,64.75
2018-07-14T15:19:14.837Z,63.55
2018-07-14T15:21:43.446Z,63.81
2018-07-14T15:24:12.187Z,62.71
2018-07-14T15:26:40.807Z,62.74
2018-07-14T15:29:09.490Z,62.74
2018-07-14T15:31:38.098Z,61.00
2018-07-14T15:34:07.095Z,61.47
2018-07-14T15:36:35.982Z,60.62
2018-07-14T15:39:06.201Z,61.48
2018-07-14T15:41:34.881Z,61.01
2018-07-14T15:44:03.482Z,61.65
2018-07-14T15:46:32.847Z,61.34
2018-07-14T15:49:01.529Z,60.59
2018-07-14T15:51:31.047Z,61.05
2018-07-14T15:53:59.912Z,61.74
2018-07-14T15:56:29.186Z,62.20
2018-07-14T15:58:57.880Z,61.91
2018-07-14T16:01:26.552Z,61.36
2018-07-14T16:03:58.635Z,62.00
2018-07-14T16:06:27.231Z,61.57
2018-07-14T16:08:56.244Z,61.33
2018-07-14T16:11:24.941Z,61.55
2018-07-14T16:13:53.655Z,61.91
2018-07-14T16:16:22.376Z,61.36
2018-07-14T16:18:52.000Z,60.24
2018-07-14T16:21:20.611Z,60.29
2018-07-14T16:23:50.176Z,60.78
2018-07-14T16:26:18.823Z,60.34
2018-07-14T16:28:47.485Z,60.59
2018-07-14T16:31:16.195Z,60.81
2018-07-14T16:33:45.938Z,61.14
2018-07-14T16:36:14.715Z,61.10
2018-07-14T16:38:43.831Z,60.89
2018-07-14T16:41:13.779Z,61.22
2018-07-14T16:43:44.484Z,60.43
2018-07-14T16:46:14.350Z,61.30
2018-07-14T16:48:43.865Z,61.61
2018-07-14T16:51:13.055Z,61.74
2018-07-14T16:53:42.574Z,61.00
2018-07-14T16:56:12.667Z,61.52
2018-07-14T16:58:43.053Z,61.55
2018-07-14T17:01:11.671Z,61.30
2018-07-14T17:03:42.620Z,60.23
2018-07-14T17:06:13.454Z,59.43
2018-07-14T17:08:42.235Z,60.59
2018-07-14T17:11:10.971Z,60.01
2018-07-14T17:13:39.628Z,59.55
2018-07-14T17:16:08.812Z,59.73
2018-07-14T17:18:37.476Z,59.95
2018-07-14T17:21:07.191Z,59.59
2018-07-14T17:23:36.285Z,60.43
2018-07-14T17:26:05.262Z,59.98
2018-07-14T17:28:33.968Z,59.58
2018-07-14T17:31:02.773Z,60.42
2018-07-14T17:33:31.583Z,60.07
2018-07-14T17:36:00.346Z,60.17
2018-07-14T17:38:29.060Z,60.90
2018-07-14T17:40:57.976Z,60.61
2018-07-14T17:43:27.104Z,61.21
2018-07-14T17:45:55.885Z,61.76
2018-07-14T17:48:24.668Z,61.93
2018-07-14T17:50:53.767Z,61.33
2018-07-14T17:53:22.656Z,62.10
2018-07-14T17:55:51.635Z,62.31
2018-07-14T17:58:20.797Z,62.95
2018-07-14T18:00:49.477Z,63.06
2018-07-14T18:03:18.300Z,63.81
2018-07-14T18:05:48.225Z,63.61
2018-07-14T18:08:17.996Z,63.80
2018-07-14T18:10:46.719Z,64.03
2018-07-14T18:13:16.565Z,64.09
2018-07-14T18:15:45.232Z,64.50
2018-07-14T18:18:13.871Z,64.60
2018-07-14T18:20:42.669Z,65.01
2018-07-14T18:23:11.548Z,65.36
2018-07-14T18:25:41.193Z,65.76
2018-07-14T18:28:09.897Z,65.58
2018-07-14T18:30:38.616Z,66.23
2018-07-14T18:33:07.303Z,66.96
2018-07-14T18:35:35.998Z,66.70
2018-07-14T18:38:04.764Z,66.61
2018-07-14T18:40:33.583Z,67.15
2018-07-14T18:43:02.354Z,67.12
2018-07-14T18:45:31.159Z,67.76
2018-07-14T18:48:00.324Z,68.24
2018-07-14T18:50:28.941Z,68.04
2018-07-14T18:52:58.622Z,67.38
2018-07-14T18:55:27.475Z,68.02
2018-07-14T18:57:56.529Z,68.64
2018-07-14T19:00:25.374Z,68.79
2018-07-14T19:02:54.124Z,68.42
2018-07-14T19:05:22.809Z,68.85
2018-07-14T19:07:51.553Z,69.21
2018-07-14T19:10:20.290Z,69.15
2018-07-14T19:12:48.936Z,69.70
2018-07-14T19:15:18.072Z,69.50
2018-07-14T19:17:46.952Z,69.79
2018-07-14T19:20:15.783Z,70.40
2018-07-14T19:22:45.145Z,70.56
2018-07-14T19:25:13.813Z,70.29
2018-07-14T19:27:43.382Z,70.56
2018-07-14T19:30:12.135Z,70.43
2018-07-14T19:32:40.955Z,70.40
2018-07-14T19:35:09.592Z,70.19
2018-07-14T19:37:38.271Z,70.52
2018-07-14T19:40:07.322Z,70.23
2018-07-14T19:42:36.007Z,70.33
2018-07-14T19:45:04.917Z,70.22
2018-07-14T19:47:33.618Z,70.45
2018-07-14T19:50:02.310Z,71.00
2018-07-14T19:52:30.977Z,71.43
2018-07-14T19:54:59.661Z,71.23
2018-07-14T19:57:28.445Z,71.05
2018-07-14T19:59:57.168Z,71.85
2018-07-14T20:02:25.873Z,72.28
2018-07-14T20:04:54.577Z,72.37
2018-07-14T20:07:23.231Z,72.77
2018-07-14T20:09:51.870Z,72.71
2018-07-14T20:12:20.636Z,73.03
2018-07-14T20:14:49.526Z,72.47
2018-07-14T20:17:18.189Z,72.64
2018-07-14T20:19:46.859Z,72.94
2018-07-14T20:22:15.525Z,72.90
2018-07-14T20:24:44.226Z,72.99
2018-07-14T20:27:12.933Z,73.27
2018-07-14T20:29:41.903Z,73.64
2018-07-14T20:32:11.493Z,73.94
2018-07-14T20:34:43.708Z,73.91
2018-07-14T20:37:14.511Z,73.57
2018-07-14T20:39:43.215Z,73.93
2018-07-14T20:42:11.883Z,74.02
2018-07-14T20:44:41.019Z,74.44
2018-07-14T20:47:09.696Z,74.89
2018-07-14T20:49:38.513Z,74.78
2018-07-14T20:52:07.300Z,74.55
2018-07-14T20:54:35.915Z,74.96
2018-07-14T20:57:04.537Z,75.19
2018-07-14T20:59:33.221Z,75.37
2018-07-14T21:02:01.930Z,75.78
2018-07-14T21:04:30.719Z,75.70
2018-07-14T21:06:59.509Z,75.87
2018-07-14T21:09:28.143Z,76.14
2018-07-14T21:11:56.966Z,76.27
2018-07-14T21:14:25.668Z,76.29
2018-07-14T21:16:54.436Z,76.62
2018-07-14T21:19:23.376Z,76.61
2018-07-14T21:21:51.968Z,76.78
2018-07-14T21:24:20.602Z,77.09
2018-07-14T21:26:49.331Z,76.74
2018-07-14T21:29:17.934Z,76.80
2018-07-14T21:31:46.611Z,76.68
2018-07-14T21:34:15.248Z,77.05
2018-07-14T21:36:44.101Z,77.11
2018-07-14T21:39:12.738Z,77.26
2018-07-14T21:41:41.466Z,77.27
2018-07-14T21:44:10.103Z,77.46
2018-07-14T21:46:38.720Z,77.49
2018-07-14T21:49:07.392Z,77.35
2018-07-14T21:51:36.039Z,77.68
2018-07-14T21:54:04.668Z,78.14
2018-07-14T21:56:33.380Z,78.03
2018-07-14T21:59:02.346Z,78.02
2018-07-14T22:01:31.649Z,78.26
2018-07-14T22:04:00.954Z,78.61
2018-07-14T22:06:31.002Z,78.42
2018-07-14T22:08:59.659Z,78.19
2018-07-14T22:11:28.536Z,77.93
2018-07-14T22:13:57.413Z,78.00
2018-07-14T22:16:26.107Z,78.16
2018-07-14T22:18:54.780Z,78.13
2018-07-14T22:21:23.556Z,78.14
2018-07-14T22:23:52.474Z,77.75
2018-07-14T22:26:21.244Z,77.77
2018-07-14T22:28:50.016Z,77.72
2018-07-14T22:31:18.736Z,77.34
2018-07-14T22:33:47.352Z,77.24
2018-07-14T22:36:15.991Z,77.08
2018-07-14T22:38:44.744Z,77.09
2018-07-14T22:41:13.355Z,77.35
2018-07-14T22:43:42.016Z,77.40
2018-07-14T22:46:10.706Z,77.13
2018-07-14T22:48:39.386Z,76.98
2018-07-14T22:51:08.047Z,77.09
2018-07-14T22:53:36.718Z,76.79
2018-07-14T22:56:05.609Z,76.61
2018-07-14T22:58:34.252Z,77.03
2018-07-14T23:01:03.106Z,76.73
2018-07-14T23:03:31.755Z,76.83
2018-07-14T23:06:00.535Z,76.95
2018-07-14T23:08:29.252Z,76.39
2018-07-14T23:10:57.837Z,76.85
2018-07-14T23:13:26.492Z,76.78
2018-07-14T23:15:55.107Z,77.13
2018-07-14T23:18:23.732Z,77.16
2018-07-14T23:20:52.672Z,77.16
2018-07-14T23:23:21.291Z,77.13
2018-07-14T23:25:49.919Z,77.49
2018-07-14T23:28:18.623Z,77.62
2018-07-14T23:30:47.304Z,77.47
2018-07-14T23:33:15.983Z,77.64
2018-07-14T23:35:44.614Z,78.24
2018-07-14T23:38:13.282Z,78.10
2018-07-14T23:40:42.039Z,78.31
2018-07-14T23:43:10.639Z,78.55
2018-07-14T23:45:39.251Z,78.85
2018-07-14T23:48:07.991Z,78.71
2018-07-14T23:50:36.865Z,79.02
2018-07-14T23:53:05.398Z,79.18
2018-07-14T23:55:35.096Z,79.81
2018-07-14T23:58:03.735Z,80.07
